sensor_id;sensor_type;location;lat;lon;timestamp;temperature;humidity
66752;SHT31;53663;42.676;23.238;2024-01-07T00:01:31;5.20;81.20
66752;SHT31;53663;42.676;23.238;2024-01-07T00:03:57;5.23;81.05
66752;SHT31;53663;42.676;23.238;2024-01-07T00:06:22;5.18;80.92
66752;SHT31;53663;42.676;23.238;2024-01-07T00:08:48;5.18;81.21
66752;SHT31;53663;42.676;23.238;2024-01-07T00:11:14;5.20;81.02
66752;SHT31;53663;42.676;23.238;2024-01-07T00:13:39;5.23;80.96
66752;SHT31;53663;42.676;23.238;2024-01-07T00:16:05;5.26;80.85
66752;SHT31;53663;42.676;23.238;2024-01-07T00:18:30;5.24;81.02
66752;SHT31;53663;42.676;23.238;2024-01-07T00:20:56;5.30;81.02
66752;SHT31;53663;42.676;23.238;2024-01-07T00:23:21;5.13;81.64
66752;SHT31;53663;42.676;23.238;2024-01-07T00:25:47;5.22;81.89
66752;SHT31;53663;42.676;23.238;2024-01-07T00:28:13;5.23;81.68
66752;SHT31;53663;42.676;23.238;2024-01-07T00:30:38;5.30;81.47
66752;SHT31;53663;42.676;23.238;2024-01-07T00:33:04;5.24;81.96
66752;SHT31;53663;42.676;23.238;2024-01-07T00:35:30;5.27;82.21
66752;SHT31;53663;42.676;23.238;2024-01-07T00:37:55;5.19;82.59
66752;SHT31;53663;42.676;23.238;2024-01-07T00:40:24;5.24;82.51
66752;SHT31;53663;42.676;23.238;2024-01-07T00:42:49;5.30;82.42
66752;SHT31;53663;42.676;23.238;2024-01-07T00:45:16;5.19;82.49
66752;SHT31;53663;42.676;23.238;2024-01-07T00:47:42;5.24;82.36
66752;SHT31;53663;42.676;23.238;2024-01-07T00:50:08;5.29;82.06
66752;SHT31;53663;42.676;23.238;2024-01-07T00:52:33;5.29;81.84
66752;SHT31;53663;42.676;23.238;2024-01-07T00:54:59;5.31;81.65
66752;SHT31;53663;42.676;23.238;2024-01-07T00:57:25;5.16;82.01
66752;SHT31;53663;42.676;23.238;2024-01-07T00:59:51;5.16;82.50
66752;SHT31;53663;42.676;23.238;2024-01-07T01:02:16;5.12;82.60
66752;SHT31;53663;42.676;23.238;2024-01-07T01:04:42;5.15;82.73
66752;SHT31;53663;42.676;23.238;2024-01-07T01:07:07;4.96;83.35
66752;SHT31;53663;42.676;23.238;2024-01-07T01:09:33;5.05;83.54
66752;SHT31;53663;42.676;23.238;2024-01-07T01:11:59;5.13;83.02
66752;SHT31;53663;42.676;23.238;2024-01-07T01:14:25;5.08;83.34
66752;SHT31;53663;42.676;23.238;2024-01-07T01:16:51;5.18;82.78
66752;SHT31;53663;42.676;23.238;2024-01-07T01:19:17;5.12;83.09
66752;SHT31;53663;42.676;23.238;2024-01-07T01:21:43;5.20;82.87
66752;SHT31;53663;42.676;23.238;2024-01-07T01:24:08;5.23;82.67
66752;SHT31;53663;42.676;23.238;2024-01-07T01:26:34;5.31;82.52
66752;SHT31;53663;42.676;23.238;2024-01-07T01:29:00;5.29;82.39
66752;SHT31;53663;42.676;23.238;2024-01-07T01:31:25;5.30;82.12
66752;SHT31;53663;42.676;23.238;2024-01-07T01:33:51;5.36;82.08
66752;SHT31;53663;42.676;23.238;2024-01-07T01:36:16;5.30;82.39
66752;SHT31;53663;42.676;23.238;2024-01-07T01:38:42;5.24;82.79
66752;SHT31;53663;42.676;23.238;2024-01-07T01:41:07;5.30;82.77
66752;SHT31;53663;42.676;23.238;2024-01-07T01:43:33;5.36;82.79
66752;SHT31;53663;42.676;23.238;2024-01-07T01:45:58;5.37;82.84
66752;SHT31;53663;42.676;23.238;2024-01-07T01:48:25;5.39;82.95
66752;SHT31;53663;42.676;23.238;2024-01-07T01:50:52;5.39;83.00
66752;SHT31;53663;42.676;23.238;2024-01-07T01:53:19;5.40;83.07
66752;SHT31;53663;42.676;23.238;2024-01-07T01:55:45;5.43;82.94
66752;SHT31;53663;42.676;23.238;2024-01-07T01:58:12;5.43;82.78
66752;SHT31;53663;42.676;23.238;2024-01-07T02:00:39;5.46;82.68
66752;SHT31;53663;42.676;23.238;2024-01-07T02:03:05;5.41;83.13
66752;SHT31;53663;42.676;23.238;2024-01-07T02:05:30;5.43;82.90
66752;SHT31;53663;42.676;23.238;2024-01-07T02:07:56;5.47;83.02
66752;SHT31;53663;42.676;23.238;2024-01-07T02:10:22;5.50;82.83
66752;SHT31;53663;42.676;23.238;2024-01-07T02:12:48;5.39;83.24
66752;SHT31;53663;42.676;23.238;2024-01-07T02:15:14;5.46;83.57
66752;SHT31;53663;42.676;23.238;2024-01-07T02:17:40;5.46;84.03
66752;SHT31;53663;42.676;23.238;2024-01-07T02:20:06;5.48;84.28
66752;SHT31;53663;42.676;23.238;2024-01-07T02:22:32;5.61;83.90
66752;SHT31;53663;42.676;23.238;2024-01-07T02:24:57;5.46;84.38
66752;SHT31;53663;42.676;23.238;2024-01-07T02:27:23;5.41;85.57
66752;SHT31;53663;42.676;23.238;2024-01-07T02:29:48;5.46;85.13
66752;SHT31;53663;42.676;23.238;2024-01-07T02:32:14;5.46;85.03
66752;SHT31;53663;42.676;23.238;2024-01-07T02:34:39;5.55;84.50
66752;SHT31;53663;42.676;23.238;2024-01-07T02:37:06;5.58;84.01
66752;SHT31;53663;42.676;23.238;2024-01-07T02:39:31;5.62;84.01
66752;SHT31;53663;42.676;23.238;2024-01-07T02:41:57;5.67;83.77
66752;SHT31;53663;42.676;23.238;2024-01-07T02:44:22;5.71;83.63
66752;SHT31;53663;42.676;23.238;2024-01-07T02:46:48;5.70;83.82
66752;SHT31;53663;42.676;23.238;2024-01-07T02:49:13;5.72;83.94
66752;SHT31;53663;42.676;23.238;2024-01-07T02:51:39;5.70;84.15
66752;SHT31;53663;42.676;23.238;2024-01-07T02:54:05;5.72;84.45
66752;SHT31;53663;42.676;23.238;2024-01-07T02:56:30;5.82;84.16
66752;SHT31;53663;42.676;23.238;2024-01-07T02:58:56;5.89;84.27
66752;SHT31;53663;42.676;23.238;2024-01-07T03:01:22;5.95;84.36
66752;SHT31;53663;42.676;23.238;2024-01-07T03:03:48;6.08;84.16
66752;SHT31;53663;42.676;23.238;2024-01-07T03:06:14;6.10;84.03
66752;SHT31;53663;42.676;23.238;2024-01-07T03:08:39;6.20;83.76
66752;SHT31;53663;42.676;23.238;2024-01-07T03:11:05;6.27;83.76
66752;SHT31;53663;42.676;23.238;2024-01-07T03:13:31;6.27;83.96
66752;SHT31;53663;42.676;23.238;2024-01-07T03:15:57;6.33;84.67
66752;SHT31;53663;42.676;23.238;2024-01-07T03:18:23;6.37;84.66
66752;SHT31;53663;42.676;23.238;2024-01-07T03:20:48;6.48;84.44
66752;SHT31;53663;42.676;23.238;2024-01-07T03:23:14;6.53;83.77
66752;SHT31;53663;42.676;23.238;2024-01-07T03:25:39;6.61;83.31
66752;SHT31;53663;42.676;23.238;2024-01-07T03:28:05;6.66;82.62
66752;SHT31;53663;42.676;23.238;2024-01-07T03:30:30;6.67;81.84
66752;SHT31;53663;42.676;23.238;2024-01-07T03:32:56;6.57;82.04
66752;SHT31;53663;42.676;23.238;2024-01-07T03:35:21;6.76;82.92
66752;SHT31;53663;42.676;23.238;2024-01-07T03:37:49;6.74;83.29
66752;SHT31;53663;42.676;23.238;2024-01-07T03:40:15;6.77;84.94
66752;SHT31;53663;42.676;23.238;2024-01-07T03:42:41;6.74;85.84
66752;SHT31;53663;42.676;23.238;2024-01-07T03:45:06;6.66;86.74
66752;SHT31;53663;42.676;23.238;2024-01-07T03:47:32;6.60;87.26
66752;SHT31;53663;42.676;23.238;2024-01-07T03:49:58;6.64;87.45
66752;SHT31;53663;42.676;23.238;2024-01-07T03:52:23;6.57;87.92
66752;SHT31;53663;42.676;23.238;2024-01-07T03:54:49;6.57;87.93
66752;SHT31;53663;42.676;23.238;2024-01-07T03:57:14;6.60;87.68
66752;SHT31;53663;42.676;23.238;2024-01-07T03:59:40;6.61;87.68
66752;SHT31;53663;42.676;23.238;2024-01-07T04:02:06;6.64;87.36
66752;SHT31;53663;42.676;23.238;2024-01-07T04:04:31;6.70;87.20
66752;SHT31;53663;42.676;23.238;2024-01-07T04:06:57;6.66;86.65
66752;SHT31;53663;42.676;23.238;2024-01-07T04:09:22;6.70;86.70
66752;SHT31;53663;42.676;23.238;2024-01-07T04:11:48;6.76;86.19
66752;SHT31;53663;42.676;23.238;2024-01-07T04:14:15;6.78;86.34
66752;SHT31;53663;42.676;23.238;2024-01-07T04:16:41;6.81;86.27
66752;SHT31;53663;42.676;23.238;2024-01-07T04:19:06;6.92;86.30
66752;SHT31;53663;42.676;23.238;2024-01-07T04:21:32;7.05;85.61
66752;SHT31;53663;42.676;23.238;2024-01-07T04:23:57;7.18;85.38
66752;SHT31;53663;42.676;23.238;2024-01-07T04:26:23;7.30;85.13
66752;SHT31;53663;42.676;23.238;2024-01-07T04:28:48;7.35;85.27
66752;SHT31;53663;42.676;23.238;2024-01-07T04:31:14;7.27;84.43
66752;SHT31;53663;42.676;23.238;2024-01-07T04:33:40;6.91;85.80
66752;SHT31;53663;42.676;23.238;2024-01-07T04:36:06;6.83;86.41
66752;SHT31;53663;42.676;23.238;2024-01-07T04:38:31;6.91;86.40
66752;SHT31;53663;42.676;23.238;2024-01-07T04:40:57;7.02;86.26
66752;SHT31;53663;42.676;23.238;2024-01-07T04:43:22;7.15;86.06
66752;SHT31;53663;42.676;23.238;2024-01-07T04:45:48;7.20;85.77
66752;SHT31;53663;42.676;23.238;2024-01-07T04:48:13;7.20;85.75
66752;SHT31;53663;42.676;23.238;2024-01-07T04:50:40;7.27;85.74
66752;SHT31;53663;42.676;23.238;2024-01-07T04:53:08;7.37;85.39
66752;SHT31;53663;42.676;23.238;2024-01-07T04:55:33;7.42;85.25
66752;SHT31;53663;42.676;23.238;2024-01-07T04:57:59;7.50;84.95
66752;SHT31;53663;42.676;23.238;2024-01-07T05:00:25;7.32;85.32
66752;SHT31;53663;42.676;23.238;2024-01-07T05:02:50;7.33;85.38
66752;SHT31;53663;42.676;23.238;2024-01-07T05:05:16;7.39;85.58
66752;SHT31;53663;42.676;23.238;2024-01-07T05:07:41;7.43;85.37
66752;SHT31;53663;42.676;23.238;2024-01-07T05:10:07;7.49;85.34
66752;SHT31;53663;42.676;23.238;2024-01-07T05:12:33;7.45;85.62
66752;SHT31;53663;42.676;23.238;2024-01-07T05:14:58;7.45;85.55
66752;SHT31;53663;42.676;23.238;2024-01-07T05:17:24;7.50;85.32
66752;SHT31;53663;42.676;23.238;2024-01-07T05:19:49;7.45;85.18
66752;SHT31;53663;42.676;23.238;2024-01-07T05:22:15;7.39;85.01
66752;SHT31;53663;42.676;23.238;2024-01-07T05:24:40;7.37;84.97
66752;SHT31;53663;42.676;23.238;2024-01-07T05:27:06;7.35;84.89
66752;SHT31;53663;42.676;23.238;2024-01-07T05:29:32;7.32;85.09
66752;SHT31;53663;42.676;23.238;2024-01-07T05:32:00;7.29;85.06
66752;SHT31;53663;42.676;23.238;2024-01-07T05:34:29;7.29;84.41
66752;SHT31;53663;42.676;23.238;2024-01-07T05:36:55;7.27;84.42
66752;SHT31;53663;42.676;23.238;2024-01-07T05:39:21;7.26;84.60
66752;SHT31;53663;42.676;23.238;2024-01-07T05:41:46;7.27;84.68
66752;SHT31;53663;42.676;23.238;2024-01-07T05:44:12;7.25;84.65
66752;SHT31;53663;42.676;23.238;2024-01-07T05:46:41;7.22;84.43
66752;SHT31;53663;42.676;23.238;2024-01-07T05:49:07;7.18;84.44
66752;SHT31;53663;42.676;23.238;2024-01-07T05:51:33;7.11;84.32
66752;SHT31;53663;42.676;23.238;2024-01-07T05:53:58;6.98;84.62
66752;SHT31;53663;42.676;23.238;2024-01-07T05:56:24;6.84;85.01
66752;SHT31;53663;42.676;23.238;2024-01-07T05:58:49;6.57;86.24
66752;SHT31;53663;42.676;23.238;2024-01-07T06:01:19;6.44;86.77
66752;SHT31;53663;42.676;23.238;2024-01-07T06:03:45;6.37;87.43
66752;SHT31;53663;42.676;23.238;2024-01-07T06:06:12;6.19;88.48
66752;SHT31;53663;42.676;23.238;2024-01-07T06:08:38;6.19;88.63
66752;SHT31;53663;42.676;23.238;2024-01-07T06:11:03;6.08;89.29
66752;SHT31;53663;42.676;23.238;2024-01-07T06:13:29;6.02;89.71
66752;SHT31;53663;42.676;23.238;2024-01-07T06:15:55;5.95;90.29
66752;SHT31;53663;42.676;23.238;2024-01-07T06:18:21;5.98;90.76
66752;SHT31;53663;42.676;23.238;2024-01-07T06:20:46;5.94;90.75
66752;SHT31;53663;42.676;23.238;2024-01-07T06:23:12;5.92;91.08
66752;SHT31;53663;42.676;23.238;2024-01-07T06:25:37;5.98;91.09
66752;SHT31;53663;42.676;23.238;2024-01-07T06:28:05;6.06;91.18
66752;SHT31;53663;42.676;23.238;2024-01-07T06:30:30;6.18;90.85
66752;SHT31;53663;42.676;23.238;2024-01-07T06:32:56;6.26;90.58
66752;SHT31;53663;42.676;23.238;2024-01-07T06:35:21;6.29;90.22
66752;SHT31;53663;42.676;23.238;2024-01-07T06:37:47;6.36;89.94
66752;SHT31;53663;42.676;23.238;2024-01-07T06:40:12;6.50;89.44
66752;SHT31;53663;42.676;23.238;2024-01-07T06:42:38;6.58;89.14
66752;SHT31;53663;42.676;23.238;2024-01-07T06:45:04;6.77;88.73
66752;SHT31;53663;42.676;23.238;2024-01-07T06:47:30;6.81;88.28
66752;SHT31;53663;42.676;23.238;2024-01-07T06:49:56;6.70;88.47
66752;SHT31;53663;42.676;23.238;2024-01-07T06:52:21;6.70;88.58
66752;SHT31;53663;42.676;23.238;2024-01-07T06:54:47;6.57;88.74
66752;SHT31;53663;42.676;23.238;2024-01-07T06:57:13;6.50;88.97
66752;SHT31;53663;42.676;23.238;2024-01-07T06:59:38;6.40;89.40
66752;SHT31;53663;42.676;23.238;2024-01-07T07:02:04;6.33;89.73
66752;SHT31;53663;42.676;23.238;2024-01-07T07:04:30;6.39;89.87
66752;SHT31;53663;42.676;23.238;2024-01-07T07:06:55;6.46;89.57
66752;SHT31;53663;42.676;23.238;2024-01-07T07:09:23;6.47;89.33
66752;SHT31;53663;42.676;23.238;2024-01-07T07:11:48;6.43;89.39
66752;SHT31;53663;42.676;23.238;2024-01-07T07:14:14;6.47;89.16
66752;SHT31;53663;42.676;23.238;2024-01-07T07:16:40;6.58;89.38
66752;SHT31;53663;42.676;23.238;2024-01-07T07:19:05;6.73;89.18
66752;SHT31;53663;42.676;23.238;2024-01-07T07:21:31;6.67;88.81
66752;SHT31;53663;42.676;23.238;2024-01-07T07:23:56;6.85;88.62
66752;SHT31;53663;42.676;23.238;2024-01-07T07:26:22;6.97;88.97
66752;SHT31;53663;42.676;23.238;2024-01-07T07:28:48;7.18;88.42
66752;SHT31;53663;42.676;23.238;2024-01-07T07:31:14;7.06;87.83
66752;SHT31;53663;42.676;23.238;2024-01-07T07:33:40;7.25;87.41
66752;SHT31;53663;42.676;23.238;2024-01-07T07:36:06;7.36;87.20
66752;SHT31;53663;42.676;23.238;2024-01-07T07:38:32;7.47;87.05
66752;SHT31;53663;42.676;23.238;2024-01-07T07:40:58;7.67;86.74
66752;SHT31;53663;42.676;23.238;2024-01-07T07:43:24;7.94;86.24
66752;SHT31;53663;42.676;23.238;2024-01-07T07:45:50;8.26;84.95
66752;SHT31;53663;42.676;23.238;2024-01-07T07:48:16;8.35;84.11
66752;SHT31;53663;42.676;23.238;2024-01-07T07:50:42;8.48;83.71
66752;SHT31;53663;42.676;23.238;2024-01-07T07:53:07;8.63;83.38
66752;SHT31;53663;42.676;23.238;2024-01-07T07:55:33;8.91;81.85
66752;SHT31;53663;42.676;23.238;2024-01-07T07:57:59;9.03;80.35
66752;SHT31;53663;42.676;23.238;2024-01-07T08:00:24;9.20;80.07
66752;SHT31;53663;42.676;23.238;2024-01-07T08:02:50;9.27;78.43
66752;SHT31;53663;42.676;23.238;2024-01-07T08:05:15;9.00;79.37
66752;SHT31;53663;42.676;23.238;2024-01-07T08:07:42;8.57;79.91
66752;SHT31;53663;42.676;23.238;2024-01-07T08:10:07;8.42;81.53
66752;SHT31;53663;42.676;23.238;2024-01-07T08:12:33;8.41;81.46
66752;SHT31;53663;42.676;23.238;2024-01-07T08:14:59;8.43;81.43
66752;SHT31;53663;42.676;23.238;2024-01-07T08:17:25;8.79;80.99
66752;SHT31;53663;42.676;23.238;2024-01-07T08:19:50;8.90;78.88
66752;SHT31;53663;42.676;23.238;2024-01-07T08:22:16;8.96;78.92
66752;SHT31;53663;42.676;23.238;2024-01-07T08:24:41;8.74;80.15
66752;SHT31;53663;42.676;23.238;2024-01-07T08:27:08;8.72;80.88
66752;SHT31;53663;42.676;23.238;2024-01-07T08:29:33;8.99;79.44
66752;SHT31;53663;42.676;23.238;2024-01-07T08:31:59;9.18;79.34
66752;SHT31;53663;42.676;23.238;2024-01-07T08:34:25;9.49;77.99
66752;SHT31;53663;42.676;23.238;2024-01-07T08:36:51;9.11;78.01
66752;SHT31;53663;42.676;23.238;2024-01-07T08:39:18;9.25;77.66
66752;SHT31;53663;42.676;23.238;2024-01-07T08:41:43;9.63;76.70
66752;SHT31;53663;42.676;23.238;2024-01-07T08:44:09;10.07;76.42
66752;SHT31;53663;42.676;23.238;2024-01-07T08:46:34;10.52;74.99
66752;SHT31;53663;42.676;23.238;2024-01-07T08:49:01;10.80;73.51
66752;SHT31;53663;42.676;23.238;2024-01-07T08:51:27;11.16;71.51
66752;SHT31;53663;42.676;23.238;2024-01-07T08:53:52;11.79;70.39
66752;SHT31;53663;42.676;23.238;2024-01-07T08:56:18;12.39;66.24
66752;SHT31;53663;42.676;23.238;2024-01-07T08:58:43;14.63;60.86
66752;SHT31;53663;42.676;23.238;2024-01-07T09:01:09;17.66;51.68
66752;SHT31;53663;42.676;23.238;2024-01-07T09:03:34;18.91;48.78
66752;SHT31;53663;42.676;23.238;2024-01-07T09:06:00;20.54;44.50
66752;SHT31;53663;42.676;23.238;2024-01-07T09:08:25;21.55;41.68
66752;SHT31;53663;42.676;23.238;2024-01-07T09:10:51;21.77;40.85
66752;SHT31;53663;42.676;23.238;2024-01-07T09:13:16;21.81;40.20
66752;SHT31;53663;42.676;23.238;2024-01-07T09:15:42;23.05;37.35
66752;SHT31;53663;42.676;23.238;2024-01-07T09:18:07;23.73;37.47
66752;SHT31;53663;42.676;23.238;2024-01-07T09:20:33;23.00;37.46
66752;SHT31;53663;42.676;23.238;2024-01-07T09:22:59;24.95;34.89
66752;SHT31;53663;42.676;23.238;2024-01-07T09:25:24;24.71;33.12
66752;SHT31;53663;42.676;23.238;2024-01-07T09:27:51;24.99;34.25
66752;SHT31;53663;42.676;23.238;2024-01-07T09:30:17;21.87;39.27
66752;SHT31;53663;42.676;23.238;2024-01-07T09:32:43;23.51;35.68
66752;SHT31;53663;42.676;23.238;2024-01-07T09:35:09;23.99;35.54
66752;SHT31;53663;42.676;23.238;2024-01-07T09:37:34;24.04;34.46
66752;SHT31;53663;42.676;23.238;2024-01-07T09:40:01;21.37;39.99
66752;SHT31;53663;42.676;23.238;2024-01-07T09:42:27;22.20;37.44
66752;SHT31;53663;42.676;23.238;2024-01-07T09:44:52;20.58;39.52
66752;SHT31;53663;42.676;23.238;2024-01-07T09:47:18;20.06;39.14
66752;SHT31;53663;42.676;23.238;2024-01-07T09:49:46;16.06;46.18
66752;SHT31;53663;42.676;23.238;2024-01-07T09:52:12;16.29;47.81
66752;SHT31;53663;42.676;23.238;2024-01-07T09:54:38;16.78;45.70
66752;SHT31;53663;42.676;23.238;2024-01-07T09:57:05;17.63;44.20
66752;SHT31;53663;42.676;23.238;2024-01-07T09:59:35;16.51;45.65
66752;SHT31;53663;42.676;23.238;2024-01-07T10:02:02;15.71;49.40
66752;SHT31;53663;42.676;23.238;2024-01-07T10:04:29;16.79;46.10
66752;SHT31;53663;42.676;23.238;2024-01-07T10:06:54;14.83;50.28
66752;SHT31;53663;42.676;23.238;2024-01-07T10:09:24;14.48;51.51
66752;SHT31;53663;42.676;23.238;2024-01-07T10:11:51;14.15;52.01
66752;SHT31;53663;42.676;23.238;2024-01-07T10:14:17;13.52;53.34
66752;SHT31;53663;42.676;23.238;2024-01-07T10:16:43;12.87;55.64
66752;SHT31;53663;42.676;23.238;2024-01-07T10:19:08;13.71;54.53
66752;SHT31;53663;42.676;23.238;2024-01-07T10:21:34;13.67;53.32
66752;SHT31;53663;42.676;23.238;2024-01-07T10:24:10;15.27;49.81
66752;SHT31;53663;42.676;23.238;2024-01-07T10:26:40;15.85;47.38
66752;SHT31;53663;42.676;23.238;2024-01-07T10:29:07;15.66;48.45
66752;SHT31;53663;42.676;23.238;2024-01-07T10:31:33;15.55;48.33
66752;SHT31;53663;42.676;23.238;2024-01-07T10:33:59;14.89;48.89
66752;SHT31;53663;42.676;23.238;2024-01-07T10:36:25;13.90;51.78
66752;SHT31;53663;42.676;23.238;2024-01-07T10:38:51;13.59;53.43
66752;SHT31;53663;42.676;23.238;2024-01-07T10:41:20;14.41;51.03
66752;SHT31;53663;42.676;23.238;2024-01-07T10:43:49;14.20;51.49
66752;SHT31;53663;42.676;23.238;2024-01-07T10:46:15;13.36;53.90
66752;SHT31;53663;42.676;23.238;2024-01-07T10:49:05;12.33;56.59
66752;SHT31;53663;42.676;23.238;2024-01-07T10:51:34;12.51;57.40
66752;SHT31;53663;42.676;23.238;2024-01-07T10:54:00;12.30;57.17
66752;SHT31;53663;42.676;23.238;2024-01-07T10:56:33;12.30;57.37
66752;SHT31;53663;42.676;23.238;2024-01-07T10:59:03;11.44;59.65
66752;SHT31;53663;42.676;23.238;2024-01-07T11:01:29;12.09;58.77
66752;SHT31;53663;42.676;23.238;2024-01-07T11:04:10;11.92;58.48
66752;SHT31;53663;42.676;23.238;2024-01-07T11:06:59;12.13;57.42
66752;SHT31;53663;42.676;23.238;2024-01-07T11:11:59;11.30;59.99
66752;SHT31;53663;42.676;23.238;2024-01-07T11:14:40;11.03;60.89
66752;SHT31;53663;42.676;23.238;2024-01-07T11:17:10;11.19;60.23
66752;SHT31;53663;42.676;23.238;2024-01-07T11:19:36;11.09;60.99
66752;SHT31;53663;42.676;23.238;2024-01-07T11:22:24;10.86;60.58
66752;SHT31;53663;42.676;23.238;2024-01-07T11:25:29;10.85;60.66
66752;SHT31;53663;42.676;23.238;2024-01-07T11:27:57;10.71;61.35
66752;SHT31;53663;42.676;23.238;2024-01-07T11:30:23;10.69;61.93
66752;SHT31;53663;42.676;23.238;2024-01-07T11:32:56;10.65;61.68
66752;SHT31;53663;42.676;23.238;2024-01-07T11:35:54;10.44;62.06
66752;SHT31;53663;42.676;23.238;2024-01-07T11:38:21;10.38;62.68
66752;SHT31;53663;42.676;23.238;2024-01-07T11:40:48;10.28;62.37
66752;SHT31;53663;42.676;23.238;2024-01-07T11:43:14;10.42;62.51
66752;SHT31;53663;42.676;23.238;2024-01-07T11:45:40;10.51;62.90
66752;SHT31;53663;42.676;23.238;2024-01-07T11:48:05;10.44;63.20
66752;SHT31;53663;42.676;23.238;2024-01-07T11:50:31;10.51;62.86
66752;SHT31;53663;42.676;23.238;2024-01-07T11:52:57;10.45;62.75
66752;SHT31;53663;42.676;23.238;2024-01-07T11:55:23;10.45;63.12
66752;SHT31;53663;42.676;23.238;2024-01-07T11:57:49;10.66;63.04
66752;SHT31;53663;42.676;23.238;2024-01-07T12:00:15;10.62;63.13
66752;SHT31;53663;42.676;23.238;2024-01-07T12:02:40;10.52;63.87
66752;SHT31;53663;42.676;23.238;2024-01-07T12:05:06;10.42;63.94
66752;SHT31;53663;42.676;23.238;2024-01-07T12:07:31;10.41;64.33
66752;SHT31;53663;42.676;23.238;2024-01-07T12:09:57;10.30;64.06
66752;SHT31;53663;42.676;23.238;2024-01-07T12:12:24;10.41;63.73
66752;SHT31;53663;42.676;23.238;2024-01-07T12:14:50;10.57;65.08
66752;SHT31;53663;42.676;23.238;2024-01-07T12:17:18;10.66;68.18
66752;SHT31;53663;42.676;23.238;2024-01-07T12:19:44;10.58;68.95
66752;SHT31;53663;42.676;23.238;2024-01-07T12:22:09;10.44;69.81
66752;SHT31;53663;42.676;23.238;2024-01-07T12:24:35;10.31;70.91
66752;SHT31;53663;42.676;23.238;2024-01-07T12:27:07;10.38;70.61
66752;SHT31;53663;42.676;23.238;2024-01-07T12:29:32;10.48;70.76
66752;SHT31;53663;42.676;23.238;2024-01-07T12:31:59;10.44;70.08
66752;SHT31;53663;42.676;23.238;2024-01-07T12:34:25;10.47;69.74
66752;SHT31;53663;42.676;23.238;2024-01-07T12:36:51;10.59;69.58
66752;SHT31;53663;42.676;23.238;2024-01-07T12:39:17;10.49;69.70
66752;SHT31;53663;42.676;23.238;2024-01-07T12:41:43;10.36;70.34
66752;SHT31;53663;42.676;23.238;2024-01-07T12:44:08;10.47;70.30
66752;SHT31;53663;42.676;23.238;2024-01-07T12:46:34;10.55;69.81
66752;SHT31;53663;42.676;23.238;2024-01-07T12:49:00;10.66;69.38
66752;SHT31;53663;42.676;23.238;2024-01-07T12:51:26;10.82;69.18
66752;SHT31;53663;42.676;23.238;2024-01-07T12:53:51;10.89;68.81
66752;SHT31;53663;42.676;23.238;2024-01-07T12:56:17;10.96;68.64
66752;SHT31;53663;42.676;23.238;2024-01-07T12:58:42;10.96;69.21
66752;SHT31;53663;42.676;23.238;2024-01-07T13:01:08;10.92;69.21
66752;SHT31;53663;42.676;23.238;2024-01-07T13:03:34;10.73;69.65
66752;SHT31;53663;42.676;23.238;2024-01-07T13:06:00;10.97;70.57
66752;SHT31;53663;42.676;23.238;2024-01-07T13:08:26;11.13;70.66
66752;SHT31;53663;42.676;23.238;2024-01-07T13:10:53;10.83;69.49
66752;SHT31;53663;42.676;23.238;2024-01-07T13:13:19;10.91;69.60
66752;SHT31;53663;42.676;23.238;2024-01-07T13:15:44;10.52;72.11
66752;SHT31;53663;42.676;23.238;2024-01-07T13:18:11;10.44;72.81
66752;SHT31;53663;42.676;23.238;2024-01-07T13:20:37;10.68;73.22
66752;SHT31;53663;42.676;23.238;2024-01-07T13:23:05;10.85;72.49
66752;SHT31;53663;42.676;23.238;2024-01-07T13:25:31;10.54;68.76
66752;SHT31;53663;42.676;23.238;2024-01-07T13:27:56;10.25;72.80
66752;SHT31;53663;42.676;23.238;2024-01-07T13:30:23;10.28;73.07
66752;SHT31;53663;42.676;23.238;2024-01-07T13:32:48;10.24;73.15
66752;SHT31;53663;42.676;23.238;2024-01-07T13:35:14;10.45;72.08
66752;SHT31;53663;42.676;23.238;2024-01-07T13:37:40;10.42;72.82
66752;SHT31;53663;42.676;23.238;2024-01-07T13:40:10;10.42;72.87
66752;SHT31;53663;42.676;23.238;2024-01-07T13:42:37;10.30;73.94
66752;SHT31;53663;42.676;23.238;2024-01-07T13:45:03;10.38;73.83
66752;SHT31;53663;42.676;23.238;2024-01-07T13:47:29;10.58;74.70
66752;SHT31;53663;42.676;23.238;2024-01-07T13:49:54;10.69;74.96
66752;SHT31;53663;42.676;23.238;2024-01-07T13:52:19;10.80;74.40
66752;SHT31;53663;42.676;23.238;2024-01-07T13:54:45;10.89;74.06
66752;SHT31;53663;42.676;23.238;2024-01-07T13:57:10;10.73;72.02
66752;SHT31;53663;42.676;23.238;2024-01-07T13:59:38;10.66;71.92
66752;SHT31;53663;42.676;23.238;2024-01-07T14:02:05;10.47;69.61
66752;SHT31;53663;42.676;23.238;2024-01-07T14:04:30;10.48;70.65
66752;SHT31;53663;42.676;23.238;2024-01-07T14:06:56;10.73;72.33
66752;SHT31;53663;42.676;23.238;2024-01-07T14:09:23;10.79;72.48
66752;SHT31;53663;42.676;23.238;2024-01-07T14:11:49;10.72;72.22
66752;SHT31;53663;42.676;23.238;2024-01-07T14:14:15;10.72;71.80
66752;SHT31;53663;42.676;23.238;2024-01-07T14:16:40;10.58;71.86
66752;SHT31;53663;42.676;23.238;2024-01-07T14:19:06;10.45;72.01
66752;SHT31;53663;42.676;23.238;2024-01-07T14:21:32;10.41;72.37
66752;SHT31;53663;42.676;23.238;2024-01-07T14:23:57;10.41;73.06
66752;SHT31;53663;42.676;23.238;2024-01-07T14:26:23;10.40;72.95
66752;SHT31;53663;42.676;23.238;2024-01-07T14:28:52;10.36;72.71
66752;SHT31;53663;42.676;23.238;2024-01-07T14:31:17;10.22;73.26
66752;SHT31;53663;42.676;23.238;2024-01-07T14:33:43;10.45;73.49
66752;SHT31;53663;42.676;23.238;2024-01-07T14:36:09;10.61;75.25
66752;SHT31;53663;42.676;23.238;2024-01-07T14:38:43;10.71;75.15
66752;SHT31;53663;42.676;23.238;2024-01-07T14:41:10;10.72;75.53
66752;SHT31;53663;42.676;23.238;2024-01-07T14:43:35;10.72;75.52
66752;SHT31;53663;42.676;23.238;2024-01-07T14:46:02;10.76;75.63
66752;SHT31;53663;42.676;23.238;2024-01-07T14:48:28;10.73;76.20
66752;SHT31;53663;42.676;23.238;2024-01-07T14:50:53;10.76;76.39
66752;SHT31;53663;42.676;23.238;2024-01-07T14:53:19;10.80;75.69
66752;SHT31;53663;42.676;23.238;2024-01-07T14:55:45;10.76;75.27
66752;SHT31;53663;42.676;23.238;2024-01-07T14:58:10;10.80;75.72
66752;SHT31;53663;42.676;23.238;2024-01-07T15:00:36;10.80;76.08
66752;SHT31;53663;42.676;23.238;2024-01-07T15:03:01;10.79;75.93
66752;SHT31;53663;42.676;23.238;2024-01-07T15:05:27;10.76;76.09
66752;SHT31;53663;42.676;23.238;2024-01-07T15:07:53;10.75;76.26
66752;SHT31;53663;42.676;23.238;2024-01-07T15:10:18;10.69;76.04
66752;SHT31;53663;42.676;23.238;2024-01-07T15:12:44;10.68;75.71
66752;SHT31;53663;42.676;23.238;2024-01-07T15:15:10;10.62;76.19
66752;SHT31;53663;42.676;23.238;2024-01-07T15:17:37;10.49;77.27
66752;SHT31;53663;42.676;23.238;2024-01-07T15:20:02;10.38;78.21
66752;SHT31;53663;42.676;23.238;2024-01-07T15:22:28;10.24;77.86